createdAt,value
2019-04-20T06:23:44.676Z,24.70
2019-04-20T06:28:38.828Z,23.52
2019-04-20T06:34:27.157Z,23.62
2019-04-20T06:39:29.184Z,24.20
2019-04-20T06:44:32.003Z,23.70
2019-04-20T06:50:01.736Z,23.10
2019-04-20T06:54:43.147Z,22.25
2019-04-20T06:59:56.485Z,22.55
2019-04-20T07:05:00.121Z,21.68
2019-04-20T07:15:06.493Z,21.57
2019-04-20T07:20:15.979Z,20.57
2019-04-20T07:25:34.545Z,21.37
2019-04-20T07:30:43.691Z,20.97
2019-04-20T07:35:40.158Z,20.55
2019-04-20T07:40:51.303Z,20.40
2019-04-20T07:46:01.851Z,21.17
2019-04-20T07:51:18.308Z,20.30
2019-04-20T07:56:50.507Z,21.00
2019-04-20T08:02:13.717Z,20.65
2019-04-20T08:06:53.951Z,19.65
2019-04-20T08:12:18.278Z,19.57
2019-04-20T08:17:48.571Z,19.70
2019-04-20T08:22:26.668Z,19.48
2019-04-20T08:27:17.598Z,19.62
2019-04-20T08:32:41.245Z,19.90
2019-04-20T08:38:13.239Z,19.90
2019-04-20T08:43:02.491Z,19.37
2019-04-20T08:48:09.815Z,18.05
2019-04-20T08:53:14.689Z,17.57
2019-04-20T08:57:54.698Z,16.77
2019-04-20T09:03:05.730Z,16.60
2019-04-20T09:08:13.540Z,16.55
2019-04-20T09:13:21.215Z,15.53
2019-04-20T09:18:28.359Z,15.45
2019-04-20T09:23:40.393Z,15.15
2019-04-20T09:28:54.373Z,15.40
2019-04-20T09:34:06.036Z,15.13
2019-04-20T09:39:17.203Z,15.43
2019-04-20T09:44:13.474Z,14.95
2019-04-20T09:49:30.709Z,14.40
2019-04-20T09:54:42.902Z,14.13
2019-04-20T09:59:52.873Z,13.38
2019-04-20T10:04:35.987Z,13.13
2019-04-20T10:09:44.850Z,12.63
2019-04-20T10:14:46.854Z,12.50
2019-04-20T10:19:51.486Z,12.68
2019-04-20T10:24:57.121Z,12.10
2019-04-20T10:30:04.726Z,11.95
2019-04-20T10:35:08.958Z,11.28
2019-04-20T10:40:22.221Z,10.55
2019-04-20T10:45:19.617Z,10.75
2019-04-20T10:50:25.044Z,10.30
2019-04-20T10:55:29.457Z,10.58
2019-04-20T11:00:46.122Z,10.93
2019-04-20T11:05:50.957Z,10.60
2019-04-20T11:11:08.377Z,10.65
2019-04-20T11:16:02.191Z,10.25
2019-04-20T11:21:07.167Z,10.08
2019-04-20T11:26:11.496Z,8.98
2019-04-20T11:31:17.066Z,9.40
2019-04-20T11:36:21.330Z,9.43
2019-04-20T11:41:29.148Z,8.83
2019-04-20T11:46:32.775Z,10.03
2019-04-20T11:52:37.246Z,9.85
2019-04-20T11:57:39.547Z,9.18
2019-04-20T12:03:09.918Z,8.08
2019-04-20T12:08:09.110Z,9.73
2019-04-20T12:13:14.771Z,8.53
2019-04-20T12:18:19.796Z,8.33
2019-04-20T12:23:24.500Z,9.10
2019-04-20T12:28:29.586Z,8.45
2019-04-20T12:33:34.533Z,8.15
2019-04-20T12:38:41.371Z,7.03
2019-04-20T12:43:45.799Z,7.92
2019-04-20T12:48:51.441Z,7.87
2019-04-20T12:53:56.343Z,8.10
2019-04-20T12:59:00.576Z,7.45
2019-04-20T13:04:07.436Z,8.10
2019-04-20T13:09:12.619Z,9.33
2019-04-20T13:14:35.436Z,10.43
2019-04-20T13:19:39.919Z,10.85
2019-04-20T13:24:45.226Z,9.80
2019-04-20T13:29:52.184Z,9.68
2019-04-20T13:34:56.269Z,11.10
2019-04-20T13:40:00.814Z,12.00
2019-04-20T13:45:08.800Z,12.28
2019-04-20T13:50:14.328Z,12.20
2019-04-20T13:55:21.926Z,10.23
2019-04-20T14:00:45.043Z,10.93
2019-04-20T14:05:50.996Z,11.43
2019-04-20T14:10:55.653Z,11.48
2019-04-20T14:16:00.905Z,9.85
2019-04-20T14:21:05.927Z,9.40
2019-04-20T14:26:10.188Z,10.00
2019-04-20T14:31:14.517Z,10.30
2019-04-20T14:36:21.100Z,9.00
2019-04-20T14:41:26.424Z,7.97
2019-04-20T14:46:31.634Z,8.93
2019-04-20T14:51:35.910Z,7.55
2019-04-20T14:56:41.335Z,7.50
2019-04-20T15:01:54.361Z,8.48
2019-04-20T15:07:00.170Z,7.30
2019-04-20T15:12:06.764Z,7.33
2019-04-20T15:17:12.753Z,7.87
2019-04-20T15:22:36.400Z,8.38
2019-04-20T15:27:44.738Z,8.20
2019-04-20T15:32:47.292Z,9.45
2019-04-20T15:37:52.973Z,8.20
2019-04-20T15:43:04.565Z,9.13
2019-04-20T15:48:03.842Z,10.00
2019-04-20T15:53:08.247Z,9.68
2019-04-20T15:58:12.544Z,10.08
2019-04-20T16:03:19.183Z,9.38
2019-04-20T16:08:26.016Z,10.32
2019-04-20T16:13:37.640Z,11.25
2019-04-20T16:18:37.043Z,12.78
2019-04-20T16:23:52.568Z,12.10
2019-04-20T16:28:59.735Z,13.80
2019-04-20T16:34:05.218Z,13.48
2019-04-20T16:39:10.991Z,11.57
2019-04-20T16:44:15.769Z,11.08
2019-04-20T16:49:21.298Z,10.50
2019-04-20T16:54:26.032Z,10.32
2019-04-20T16:59:32.516Z,11.75
2019-04-20T17:04:37.495Z,13.38
2019-04-20T17:09:47.421Z,11.60
2019-04-20T17:14:52.066Z,10.40
2019-04-20T17:19:57.629Z,11.70
2019-04-20T17:25:02.270Z,12.43
2019-04-20T17:30:25.663Z,9.90
2019-04-20T17:35:45.005Z,9.88
2019-04-20T17:40:56.044Z,10.00
2019-04-20T17:45:54.343Z,12.28
2019-04-20T17:51:14.195Z,10.18
2019-04-20T17:56:01.653Z,9.00
2019-04-20T18:01:31.129Z,9.50
2019-04-20T18:06:40.224Z,9.35
2019-04-20T18:11:37.364Z,9.58
2019-04-20T18:17:10.163Z,9.63
2019-04-20T18:22:03.718Z,9.73
2019-04-20T18:27:36.252Z,10.35
2019-04-20T18:32:29.469Z,11.08
2019-04-20T18:37:34.426Z,11.15
2019-04-20T18:42:43.482Z,11.80
2019-04-20T18:48:04.421Z,11.25
2019-04-20T18:52:51.814Z,10.32
2019-04-20T18:57:57.276Z,11.35
2019-04-20T19:03:09.608Z,11.80
2019-04-20T19:08:12.373Z,10.20
2019-04-20T19:13:32.964Z,10.60
2019-04-20T19:53:36.646Z,12.35
2019-04-20T20:04:50.892Z,12.50
2019-04-20T20:42:02.733Z,14.58
2019-04-20T21:25:08.132Z,13.30
2019-04-20T21:37:24.964Z,14.93
